地図

経路データ

SID SEASON NUMBER BASIN SUBBASIN NAME ISO_TIME NATURE LAT LON WMO_WIND WMO_PRES WMO_AGENCY TRACK_TYPE DIST2LAND LANDFALL IFLAG USA_AGENCY USA_ATCF_ID USA_LAT USA_LON USA_RECORD USA_STATUS USA_WIND USA_PRES USA_SSHS USA_R34_NE USA_R34_SE USA_R34_SW USA_R34_NW USA_R50_NE USA_R50_SE USA_R50_SW USA_R50_NW USA_R64_NE USA_R64_SE USA_R64_SW USA_R64_NW USA_POCI USA_ROCI USA_RMW USA_EYE TOKYO_LAT TOKYO_LON TOKYO_GRADE TOKYO_WIND TOKYO_PRES TOKYO_R50_DIR TOKYO_R50_LONG TOKYO_R50_SHORT TOKYO_R30_DIR TOKYO_R30_LONG TOKYO_R30_SHORT TOKYO_LAND CMA_LAT CMA_LON CMA_CAT CMA_WIND CMA_PRES HKO_LAT HKO_LON HKO_CAT HKO_WIND HKO_PRES NEWDELHI_LAT NEWDELHI_LON NEWDELHI_GRADE NEWDELHI_WIND NEWDELHI_PRES NEWDELHI_CI NEWDELHI_DP NEWDELHI_POCI REUNION_LAT REUNION_LON REUNION_TYPE REUNION_WIND REUNION_PRES REUNION_TNUM REUNION_CI REUNION_RMW REUNION_R34_NE REUNION_R34_SE REUNION_R34_SW REUNION_R34_NW REUNION_R50_NE REUNION_R50_SE REUNION_R50_SW REUNION_R50_NW REUNION_R64_NE REUNION_R64_SE REUNION_R64_SW REUNION_R64_NW BOM_LAT BOM_LON BOM_TYPE BOM_WIND BOM_PRES BOM_TNUM BOM_CI BOM_RMW BOM_R34_NE BOM_R34_SE BOM_R34_SW BOM_R34_NW BOM_R50_NE BOM_R50_SE BOM_R50_SW BOM_R50_NW BOM_R64_NE BOM_R64_SE BOM_R64_SW BOM_R64_NW BOM_ROCI BOM_POCI BOM_EYE BOM_POS_METHOD BOM_PRES_METHOD NADI_LAT NADI_LON NADI_CAT NADI_WIND NADI_PRES WELLINGTON_LAT WELLINGTON_LON WELLINGTON_WIND WELLINGTON_PRES DS824_LAT DS824_LON DS824_STAGE DS824_WIND DS824_PRES TD9636_LAT TD9636_LON TD9636_STAGE TD9636_WIND TD9636_PRES TD9635_LAT TD9635_LON TD9635_WIND TD9635_PRES TD9635_ROCI NEUMANN_LAT NEUMANN_LON NEUMANN_CLASS NEUMANN_WIND NEUMANN_PRES MLC_LAT MLC_LON MLC_CLASS MLC_WIND MLC_PRES USA_GUST BOM_GUST BOM_GUST_PER REUNION_GUST REUNION_GUST_PER USA_SEAHGT USA_SEARAD_NE USA_SEARAD_SE USA_SEARAD_SW USA_SEARAD_NW STORM_SPEED STORM_DIR
1956107N06147 1956 37 WP MM THELMA 1956-04-16 00:00:00 TS 5.86667 147.333 1004 tokyo main 896 896 OOO______OOO__ jtwc_wp WP031956 5.90000 147.500 35 0 5.80000 147.000 2 1004 0 0 0 5.80000 147.000 1 29 1004 5.90000 147.500 TC 35 5.90000 147.500 2 35 5.90000 147.500 35 1005 180 14 271
1956107N06147 1956 37 WP MM THELMA 1956-04-16 03:00:00 TS 5.87436 146.625 main 896 896 PPP______PPP__ WP031956 5.88268 146.753 40 0 5.86019 146.337 2 1002 0 0 5.86009 146.412 1 33 1001 5.88268 146.753 TC 40 5.87784 146.745 2 40 5.88268 146.753 40 1002 150 14 273
1956107N06147 1956 37 WP MM THELMA 1956-04-16 06:00:00 TS 5.93235 145.915 1000 tokyo main 899 899 OOO______OPO__ jtwc_wp WP031956 5.90000 146.000 45 0 6.00000 145.700 9 1000 0 0 0 6.00000 145.800 2 38 999 5.90000 146.000 TC 45 5.89413 145.993 2 45 5.90000 146.000 45 999 120 14 278
1956107N06147 1956 37 WP MM THELMA 1956-04-16 09:00:00 TS 6.08300 145.204 main 932 932 PPP______PPP__ WP031956 5.98993 145.242 50 0 6.26988 145.100 9 1000 0 0 6.26998 145.150 2 43 998 5.98993 145.242 TC 50 5.98836 145.244 2 50 5.98993 145.242 50 998 120 15 286
1956107N06147 1956 37 WP MM THELMA 1956-04-16 12:00:00 TS 6.33333 144.500 1000 tokyo main 969 969 OOO______OOO__ jtwc_wp WP031956 6.20000 144.500 55 0 6.60000 144.500 9 1000 0 0 0 6.60000 144.500 3 48 997 6.20000 144.500 TC 55 6.20000 144.500 2 55 6.20000 144.500 55 998 120 15 293
1956107N06147 1956 37 WP MM THELMA 1956-04-16 15:00:00 TS 6.66067 143.808 main 1034 1034 PPP______PPP__ WP031956 6.54747 143.770 62 0 6.88494 143.857 9 1000 0 0 6.88484 143.907 3 53 996 6.54747 143.770 TC 62 6.55186 143.771 2 62 6.54747 143.770 62 997 120 15 299
1956107N06147 1956 37 WP MM THELMA 1956-04-16 18:00:00 TS 7.06667 143.150 1000 tokyo main 1101 1101 OOO______OOO__ jtwc_wp WP031956 7.00000 143.100 70 1 7.20000 143.200 9 1000 0 0 0 7.20000 143.300 3 58 996 7.00000 143.100 TC 70 7.00000 143.100 3 70 7.00000 143.100 70 997 120 15 304
1956107N06147 1956 37 WP MM THELMA 1956-04-16 21:00:00 TS 7.51800 142.537 main 1124 1124 PPP______PPP__ WP031956 7.49237 142.520 72 1 7.56997 142.535 9 997 0 0 7.57003 142.600 3 63 995 7.49237 142.520 TC 72 7.49086 142.525 3 72 7.49237 142.520 72 996 150 15 309
1956107N06147 1956 37 WP MM THELMA 1956-04-17 00:00:00 TS 8.00000 141.967 995 tokyo main 1155 1151 OOO______OOO__ jtwc_wp WP031956 8.00000 142.000 75 1 8.00000 141.900 9 995 0 0 0 8.00000 141.900 4 68 994 8.00000 142.000 TC 75 8.00000 142.000 4 75 8.00000 142.000 75 996 180 15 312
1956107N06147 1956 37 WP MM THELMA 1956-04-17 03:00:00 TS 8.48071 141.439 main 1186 1186 PPP______PPP__ WP031956 8.46484 141.507 77 1 8.51479 141.350 9 992 0 0 8.50730 141.292 4 72 991 8.46484 141.507 TC 77 8.46764 141.470 4 77 8.46484 141.507 77 995 180 14 312
1956107N06147 1956 37 WP MM THELMA 1956-04-17 06:00:00 TS 8.93455 140.907 990 tokyo main 1214 1214 OOO______OPO__ jtwc_wp WP031956 8.90000 141.000 80 1 9.00000 140.800 9 990 0 0 0 9.00000 140.700 4 77 989 8.90000 141.000 TC 80 8.90728 140.940 4 80 8.90000 141.000 80 994 180 14 308
1956107N06147 1956 37 WP MM THELMA 1956-04-17 09:00:00 TS 9.32875 140.326 main 1232 1232 PPP______PPP__ WP031956 9.31480 140.445 82 1 9.32995 140.165 9 990 0 0 9.37987 140.065 4 82 986 9.31480 140.445 TC 82 9.31831 140.390 4 82 9.31480 140.445 82 990 180 14 302
1956107N06147 1956 37 WP MM THELMA 1956-04-17 12:00:00 TS 9.68333 139.683 990 tokyo main 1249 1245 OOO______OOO__ jtwc_wp WP031956 9.70000 139.800 85 2 9.60000 139.500 9 990 0 0 0 9.70000 139.400 5 87 984 9.70000 139.800 TC 85 9.70000 139.800 4 85 9.70000 139.800 85 987 180 15 297
1956107N06147 1956 37 WP MM THELMA 1956-04-17 15:00:00 TS 10.0342 138.947 main 1253 1253 PPP______PPP__ WP031956 10.0652 139.000 90 2 9.89978 138.865 9 990 0 0 10.0149 138.700 5 92 981 10.0652 139.000 TC 90 10.0947 139.115 4 88 10.0652 139.000 90 983 210 16 295
1956107N06147 1956 37 WP MM THELMA 1956-04-17 18:00:00 TS 10.3593 138.199 990 tokyo main 1276 1251 OOO______OPO__ jtwc_wp WP031956 10.4000 138.200 95 2 10.2000 138.200 9 990 0 0 0 10.3000 138.000 5 97 979 10.4000 138.200 TC 95 10.4555 138.393 4 92 10.4000 138.200 95 980 240 15 295
1956107N06147 1956 37 WP MM THELMA 1956-04-17 21:00:00 TS 10.6771 137.523 main 1243 1185 PPP______PPP__ WP031956 10.7372 137.570 97 3 10.5151 137.435 9 982 0 0 10.5724 137.320 5 97 977 10.7372 137.570 TC 97 10.7635 137.675 4 96 10.7372 137.570 97 977 240 14 294
1956107N06147 1956 37 WP MM THELMA 1956-04-18 00:00:00 TS 10.9333 136.900 975 tokyo main 1185 1125 OOO______OOO__ jtwc_wp WP031956 11.0000 137.000 100 3 10.8000 136.700 9 975 0 0 0 10.8000 136.700 5 97 975 11.0000 137.000 TC 100 11.0000 137.000 4 100 11.0000 137.000 100 974 240 13 289
1956107N06147 1956 37 WP MM THELMA 1956-04-18 03:00:00 TS 11.0993 136.303 main 1125 1074 PPP______PPP__ WP031956 11.1375 136.377 100 3 11.0373 136.105 9 972 0 0 10.9873 136.170 5 97 972 11.1375 136.377 TC 100 11.1584 136.412 4 100 11.1375 136.377 100 971 240 11 283
1956107N06147 1956 37 WP MM THELMA 1956-04-18 06:00:00 TS 11.1911 135.762 970 tokyo main 1074 1021 OOO______OPO__ jtwc_wp WP031956 11.2000 135.800 100 3 11.2000 135.600 9 970 0 0 0 11.1000 135.700 5 97 969 11.2000 135.800 TC 100 11.2467 135.874 4 100 11.2000 135.800 100 969 240 10 279
1956107N06147 1956 37 WP MM THELMA 1956-04-18 09:00:00 TS 11.2523 135.275 main 1023 981 PPP______PPP__ WP031956 11.2724 135.313 100 3 11.2874 135.112 9 970 0 0 11.1225 135.227 5 101 965 11.2724 135.313 TC 100 11.2867 135.375 4 100 11.2724 135.313 100 963 270 9 275
1956107N06147 1956 37 WP MM THELMA 1956-04-18 12:00:00 TS 11.2667 134.850 970 tokyo main 970 936 OOO______OOO__ jtwc_wp WP031956 11.3000 134.900 100 3 11.3000 134.700 9 970 0 0 0 11.1000 134.800 6 106 961 11.3000 134.900 TC 100 11.3000 134.900 4 100 11.3000 134.900 100 958 300 8 268
1956107N06147 1956 37 WP MM THELMA 1956-04-18 15:00:00 TS 11.2208 134.502 main 936 904 PPP______PPP__ WP031956 11.2498 134.565 105 3 11.2423 134.400 9 970 0 0 11.0773 134.450 6 111 957 11.2498 134.565 TC 105 11.2557 134.468 4 106 11.2498 134.565 105 952 300 7 263
1956107N06147 1956 37 WP MM THELMA 1956-04-18 18:00:00 TS 11.1835 134.142 970 tokyo main 893 851 OOO______OPO__ jtwc_wp WP031956 11.2000 134.200 110 3 11.2000 134.100 9 970 0 0 0 11.1000 134.100 6 116 953 11.2000 134.200 TC 110 11.2012 134.051 4 112 11.2000 134.200 110 947 300 8 269
1956107N06147 1956 37 WP MM THELMA 1956-04-18 21:00:00 TS 11.2043 133.678 main 851 801 PPP______PPP__ WP031956 11.1900 133.695 117 4 11.2474 133.695 9 957 0 0 11.2124 133.680 6 121 949 11.1900 133.695 TC 117 11.1962 133.608 4 118 11.1900 133.695 117 941 270 10 279
1956107N06147 1956 37 WP MM THELMA 1956-04-19 00:00:00 TS 11.3333 133.133 945 tokyo main 791 745 OOO______OOO__ jtwc_wp WP031956 11.3000 133.100 125 4 11.4000 133.200 9 945 0 0 0 11.4000 133.200 6 126 946 11.3000 133.100 TC 125 11.3000 133.100 4 125 11.3000 133.100 125 936 240 12 290
1956107N06147 1956 37 WP MM THELMA 1956-04-19 03:00:00 TS 11.6244 132.521 main 734 674 PPP______PPP__ WP031956 11.5899 132.480 130 4 11.7076 132.600 9 942 0 0 11.6425 132.658 6 131 942 11.5899 132.480 TC 130 11.6265 132.429 4 127 11.5899 132.480 130 935 240 14 298
1956107N06147 1956 37 WP MM THELMA 1956-04-19 06:00:00 TS 11.9927 131.866 940 tokyo main 674 606 OOO______OPO__ jtwc_wp WP031956 12.0000 131.800 135 4 12.0000 132.000 9 940 0 0 0 11.9000 132.100 6 136 939 12.0000 131.800 TC 135 12.0564 131.695 4 130 12.0000 131.800 135 934 240 15 300
1956107N06147 1956 37 WP MM THELMA 1956-04-19 09:00:00 TS 12.3609 131.201 main 608 552 PPP______PPP__ WP031956 12.4876 131.036 135 4 12.0947 131.542 9 940 0 0 12.0999 131.592 6 136 938 12.4876 131.036 TC 135 12.5079 130.963 4 132 12.4876 131.036 135 934 240 14 298
1956107N06147 1956 37 WP MM THELMA 1956-04-19 12:00:00 TS 12.6667 130.567 940 tokyo main 556 493 OOO______OOO__ jtwc_wp WP031956 12.9000 130.300 135 4 12.1000 131.100 9 940 0 0 0 12.3000 131.100 6 136 938 12.9000 130.300 TC 135 12.9000 130.300 4 135 12.9000 130.300 135 935 240 13 291
1956107N06147 1956 37 WP MM THELMA 1956-04-19 15:00:00 TS 12.8048 130.004 main 493 441 PPP______PPP__ WP031956 13.0374 129.682 137 5 12.0625 130.557 9 940 0 0 12.5499 130.607 6 136 937 13.0374 129.682 TC 137 13.1044 129.811 4 138 13.0374 129.682 137 936 240 11 283
1956107N06147 1956 37 WP MM THELMA 1956-04-19 18:00:00 TS 12.9072 129.516 940 tokyo main 441 411 OOO______OPO__ jtwc_wp WP031956 13.1000 129.200 140 5 12.1000 130.000 9 940 0 0 0 12.8000 130.100 6 136 937 13.1000 129.200 TC 140 13.2434 129.396 4 142 13.1000 129.200 140 937 240 9 288
1956107N06147 1956 37 WP MM THELMA 1956-04-19 21:00:00 TS 13.0861 129.137 main 403 378 PPP______PPP__ WP031956 13.2846 128.900 145 5 12.3096 129.537 9 940 0 0 12.9923 129.580 6 136 936 13.2846 128.900 TC 145 13.3608 129.008 4 146 13.2846 128.900 145 937 240 9 298
1956107N06147 1956 37 WP MM THELMA 1956-04-20 00:00:00 TS 13.3167 128.733 940 tokyo main 368 332 OOO______OOO__ jtwc_wp WP031956 13.5000 128.600 150 5 12.7000 129.000 9 940 0 0 0 13.2000 129.000 6 136 936 13.5000 128.600 TC 150 13.5000 128.600 4 150 13.5000 128.600 150 938 240 11 298
1956107N06147 1956 37 WP MM THELMA 1956-04-20 03:00:00 TS 13.6019 128.152 main 332 296 PPP______PPP__ WP031956 13.6851 128.080 147 5 13.3305 128.201 9 937 0 0 13.4923 128.338 6 140 935 13.6851 128.080 TC 147 13.7329 128.132 4 147 13.6851 128.080 147 939 240 13 296
1956107N06147 1956 37 WP MM THELMA 1956-04-20 06:00:00 TS 13.8986 127.522 935 tokyo main 288 264 OOO______OPO__ jtwc_wp WP031956 13.9000 127.500 145 5 13.9000 127.400 9 935 0 0 0 13.8000 127.600 6 145 935 13.9000 127.500 TC 145 13.9917 127.632 4 145 13.9000 127.500 145 940 240 13 296
1956107N06147 1956 37 WP MM THELMA 1956-04-20 09:00:00 TS 14.1629 126.980 main 272 222 PPP______PPP__ WP031956 14.2070 127.037 142 5 14.0443 126.884 9 937 0 0 14.0576 126.792 6 145 936 14.2070 127.037 TC 142 14.2546 127.091 4 142 14.2070 127.037 142 940 240 12 295
1956107N06147 1956 37 WP MM THELMA 1956-04-20 12:00:00 TS 14.4000 126.400 940 tokyo main 222 160 OOO______OOO__ jtwc_wp WP031956 14.5000 126.500 140 5 14.1000 126.400 9 940 0 0 0 14.3000 126.000 6 145 938 14.5000 126.500 TC 140 14.5000 126.500 4 140 14.5000 126.500 140 941 240 13 289
1956107N06147 1956 37 WP MM THELMA 1956-04-20 15:00:00 TS 14.6014 125.667 main 160 116 PPP______PPP__ WP031956 14.6654 125.715 137 5 14.3776 125.723 9 940 0 0 14.5497 125.320 6 140 939 14.6654 125.715 TC 137 14.6850 125.817 4 137 14.6654 125.715 137 942 240 15 285
1956107N06147 1956 37 WP MM THELMA 1956-04-20 18:00:00 TS 14.7918 124.915 940 tokyo main 110 99 OOO______OPO__ jtwc_wp WP031956 14.8000 124.900 135 4 14.7000 125.000 9 940 0 0 0 14.8000 124.700 6 136 941 14.8000 124.900 TC 135 14.8510 125.092 4 135 14.8000 124.900 135 943 240 14 286
1956107N06147 1956 37 WP MM THELMA 1956-04-20 21:00:00 TS 14.9888 124.252 main 111 111 PPP______PPP__ WP031956 14.9772 124.247 132 4 14.9499 124.327 9 942 0 0 15.0349 124.070 6 131 942 14.9772 124.247 TC 132 15.0163 124.370 4 132 14.9772 124.247 132 943 210 13 289
1956107N06147 1956 37 WP MM THELMA 1956-04-21 00:00:00 TS 15.2167 123.667 945 tokyo main 141 132 OOO______OOO__ jtwc_wp WP031956 15.2000 123.700 130 4 15.2000 123.700 9 945 0 0 0 15.3000 123.500 6 126 944 15.2000 123.700 TC 130 15.2000 123.700 4 130 15.2000 123.700 130 944 180 12 296
1956107N06147 1956 37 WP MM THELMA 1956-04-21 03:00:00 TS 15.5047 123.177 main 132 69 PPP______PPP__ WP031956 15.4997 123.242 117 4 15.4847 123.135 9 947 0 0 15.6496 123.050 6 111 948 15.4997 123.242 TC 117 15.3947 123.150 4 121 15.4997 123.242 117 948 180 11 302
1956107N06147 1956 37 WP MM THELMA 1956-04-21 06:00:00 TS 15.8027 122.709 950 tokyo main 69 15 OOO______OPO__ jtwc_wp WP031956 15.8000 122.800 105 3 15.8000 122.600 9 950 0 0 0 16.0000 122.600 5 97 952 15.8000 122.800 TC 105 15.6160 122.653 4 112 15.8000 122.800 105 952 180 11 299
1956107N06147 1956 37 WP MM THELMA 1956-04-21 09:00:00 TS 16.0301 122.189 main 15 0 PPP______PPP__ WP031956 15.9697 122.294 100 3 16.1423 122.057 9 957 0 0 16.2501 122.015 5 92 958 15.9697 122.294 TC 100 15.8792 122.181 4 103 15.9697 122.294 100 959 210 12 295
1956107N06147 1956 37 WP MM THELMA 1956-04-21 12:00:00 TS 16.3000 121.617 965 tokyo main 0 0 OOO______OOO__ jtwc_wp WP031956 16.2000 121.700 95 2 16.5000 121.500 9 965 0 0 0 16.5000 121.400 5 87 964 16.2000 121.700 TC 95 16.2000 121.700 4 95 16.2000 121.700 95 967 240 14 300
1956107N06147 1956 37 WP MM THELMA 1956-04-21 15:00:00 TS 16.7145 120.930 main 0 0 PPP______PPP__ WP031956 16.6706 120.921 87 2 16.8425 120.892 9 975 0 0 16.8274 120.835 5 87 967 16.6706 120.921 TC 87 16.6055 121.089 4 88 16.6706 120.921 87 974 240 16 304
1956107N06147 1956 37 WP MM THELMA 1956-04-21 18:00:00 TS 17.1773 120.279 985 tokyo main 10 10 OOO______OPO__ jtwc_wp WP031956 17.2000 120.200 80 1 17.2000 120.300 9 985 0 0 0 17.2000 120.300 5 87 970 17.2000 120.200 TC 80 17.0638 120.475 4 82 17.2000 120.200 80 981 240 14 309
1956107N06147 1956 37 WP MM THELMA 1956-04-21 21:00:00 TS 17.6060 119.784 main 53 53 PPP______PPP__ WP031956 17.6371 119.760 75 1 17.5925 119.748 9 990 0 0 17.5925 119.755 5 87 972 17.6371 119.760 TC 75 17.5400 119.923 4 76 17.6371 119.760 75 988 210 12 316
1956107N06147 1956 37 WP MM THELMA 1956-04-22 00:00:00 TS 18.0000 119.433 995 tokyo main 105 105 OOO______OOO__ jtwc_wp WP031956 18.0000 119.500 70 1 18.0000 119.300 9 995 0 0 0 18.0000 119.300 5 87 975 18.0000 119.500 TC 70 18.0000 119.500 4 70 18.0000 119.500 70 996 180 9 321
1956107N06147 1956 37 WP MM THELMA 1956-04-22 03:00:00 TS 18.3128 119.174 main 139 139 PPP______PPP__ WP031956 18.2349 119.297 70 1 18.3924 118.960 9 995 0 0 18.3924 118.960 5 82 977 18.2349 119.297 TC 70 18.3873 119.235 4 70 18.2349 119.297 70 995 180 7 331
1956107N06147 1956 37 WP MM THELMA 1956-04-22 06:00:00 TS 18.6427 119.052 995 tokyo main 158 158 OOO______OPO__ jtwc_wp WP031956 18.5000 119.200 70 1 18.8000 118.800 9 995 0 0 0 18.8000 118.800 4 77 980 18.5000 119.200 TC 70 18.7561 119.109 4 70 18.5000 119.200 70 994 180 8 351
1956107N06147 1956 37 WP MM THELMA 1956-04-22 09:00:00 TS 19.0811 119.048 main 185 176 PPP______PPP__ WP031956 18.9550 119.170 70 1 19.2500 118.840 9 995 0 0 19.2499 118.832 4 77 982 18.9550 119.170 TC 70 19.1220 119.104 4 70 18.9550 119.170 70 993 180 9 5
1956107N06147 1956 37 WP MM THELMA 1956-04-22 12:00:00 TS 19.5667 119.133 995 tokyo main 207 207 OOO______OOO__ jtwc_wp WP031956 19.5000 119.200 70 1 19.7000 119.000 9 995 0 0 0 19.7000 119.000 4 77 985 19.5000 119.200 TC 70 19.5000 119.200 4 70 19.5000 119.200 70 993 180 10 7
1956107N06147 1956 37 WP MM THELMA 1956-04-22 15:00:00 TS 20.0558 119.178 main 237 213 PPP______PPP__ WP031956 20.0798 119.183 75 1 20.0848 119.091 9 992 0 0 20.0848 119.148 4 77 985 20.0798 119.183 TC 75 19.9259 119.284 4 73 20.0798 119.183 75 992 180 10 12
1956107N06147 1956 37 WP MM THELMA 1956-04-22 18:00:00 TS 20.5272 119.345 990 tokyo main 213 152 OOO______OPO__ jtwc_wp WP031956 20.6000 119.300 80 1 20.5000 119.300 9 990 0 0 0 20.5000 119.400 4 77 985 20.6000 119.300 TC 80 20.3634 119.468 4 77 20.6000 119.300 80 991 180 10 29
1956107N06147 1956 37 WP MM THELMA 1956-04-22 21:00:00 TS 20.9559 119.701 main 144 84 PPP______PPP__ WP031956 20.9297 119.638 82 1 21.0801 119.732 9 990 0 0 21.0724 119.790 4 72 987 20.9297 119.638 TC 82 20.7942 119.769 4 81 20.9297 119.638 82 990 180 12 46
1956107N06147 1956 37 WP MM THELMA 1956-04-23 00:00:00 TS 21.3333 120.233 990 tokyo main 84 33 OOO______OOO__ jtwc_wp WP031956 21.2000 120.200 85 2 21.6000 120.300 9 990 0 0 0 21.6000 120.300 4 68 990 21.2000 120.200 TC 85 21.2000 120.200 4 85 21.2000 120.200 85 990 180 13 58
1956107N06147 1956 37 WP MM THELMA 1956-04-23 03:00:00 TS 21.6499 120.913 main 33 24 PPP______PPP__ WP031956 21.5507 120.977 85 2 21.8372 120.871 9 991 0 0 21.8948 120.863 4 63 991 21.5507 120.977 TC 85 21.5153 120.812 4 85 21.5507 120.977 85 991 180 15 66
1956107N06147 1956 37 WP MM THELMA 1956-04-23 06:00:00 TS 21.9347 121.657 992 tokyo main 82 82 OOO______OPO__ jtwc_wp WP031956 21.9000 121.800 85 2 22.0000 121.500 9 992 0 0 0 22.1000 121.500 3 58 992 21.9000 121.800 TC 85 21.8082 121.541 4 85 21.9000 121.800 85 992 180 14 68
1956107N06147 1956 37 WP MM THELMA 1956-04-23 09:00:00 TS 22.1972 122.343 main 136 136 PPP______PPP__ WP031956 22.1771 122.446 85 2 22.2327 122.215 9 992 0 0 22.2977 122.208 3 58 993 22.1771 122.446 TC 85 22.1216 122.300 4 85 22.1771 122.446 85 992 180 14 64
1956107N06147 1956 37 WP MM THELMA 1956-04-23 12:00:00 TS 22.5333 122.967 992 tokyo main 177 173 OOO______OOO__ jtwc_wp WP031956 22.5000 123.000 85 2 22.6000 122.900 9 992 0 0 0 22.6000 122.900 3 58 994 22.5000 123.000 TC 85 22.5000 123.000 4 85 22.5000 123.000 85 993 180 14 52
1956107N06147 1956 37 WP MM THELMA 1956-04-23 15:00:00 TS 23.0372 123.500 main 215 214 PPP______PPP__ WP031956 22.9473 123.530 85 2 23.2270 123.430 9 992 0 0 23.1698 123.502 3 53 994 22.9473 123.530 TC 85 22.9842 123.476 4 81 22.9473 123.530 85 994 150 14 40
1956107N06147 1956 37 WP MM THELMA 1956-04-23 18:00:00 TS 23.6235 123.965 992 tokyo main 235 231 OOO______OPO__ jtwc_wp WP031956 23.5000 124.000 85 2 23.9000 123.900 9 992 0 0 0 23.8000 124.000 3 48 995 23.5000 124.000 TC 85 23.5413 123.890 4 78 23.5000 124.000 85 995 120 14 34
1956107N06147 1956 37 WP MM THELMA 1956-04-23 21:00:00 TS 24.1976 124.368 main 255 253 PPP______PPP__ WP031956 24.1344 124.378 77 1 24.3722 124.393 9 994 0 0 24.2571 124.374 3 48 995 24.1344 124.378 TC 77 24.1528 124.309 4 75 24.1344 124.378 78 996 150 14 33
1956107N06147 1956 37 WP MM THELMA 1956-04-24 00:00:00 TS 24.7833 124.800 996 tokyo main 283 283 OOO______OOO__ jtwc_wp WP031956 24.8000 124.800 70 1 24.8000 124.900 9 996 0 0 0 24.7000 124.700 3 48 995 24.8000 124.800 TC 70 24.8000 124.800 4 72 24.8000 124.800 72 997 180 15 38
1956107N06147 1956 37 WP MM THELMA 1956-04-24 03:00:00 TS 25.3434 125.361 main 343 343 PPP______PPP__ WP031956 25.3847 125.384 65 1 25.2625 125.451 9 996 0 0 25.2124 125.086 3 43 995 25.3847 125.384 TC 65 25.4314 125.480 4 69 25.3847 125.384 66 997 180 16 43
1956107N06147 1956 37 WP MM THELMA 1956-04-24 06:00:00 TS 25.9487 126.007 997 tokyo main 413 413 OOO______OPO__ jtwc_wp WP031956 26.0000 126.100 60 0 25.8000 126.000 9 997 0 0 0 25.8000 125.500 2 38 995 26.0000 126.100 TC 60 26.0920 126.240 4 66 26.0000 126.100 60 998 180 18 43
1956107N06147 1956 37 WP MM THELMA 1956-04-24 09:00:00 TS 26.6282 126.711 main 502 502 PPP______PPP__ WP031956 26.7356 126.957 60 0 26.3644 126.473 9 997 0 0 26.4169 125.892 2 38 995 26.7356 126.957 TC 60 26.7813 127.031 4 63 26.7356 126.957 60 999 150 20 42
1956107N06147 1956 37 WP MM THELMA 1956-04-24 12:00:00 TS 27.4087 127.478 997 tokyo main 498 391 OOO______OOO__ jtwc_wp WP031956 27.5000 127.800 60 0 27.2000 127.000 9 997 0 0 0 27.2000 126.400 2 38 995 27.5000 127.800 TC 60 27.5000 127.800 2 60 27.5000 127.800 60 1000 120 21 38
1956107N06147 1956 37 WP MM THELMA 1956-04-24 15:00:00 TS 28.2736 128.172 main 376 270 PPP______PPP__ WP031956 28.1840 128.425 52 0 28.5902 127.600 9 997 0 0 28.2291 127.127 2 33 996 28.1840 128.425 TC 52 28.2482 128.508 2 52 28.1840 128.425 52 1000 90 21 35
1956107N06147 1956 37 WP MM THELMA 1956-04-24 18:00:00 TS 29.1600 128.875 997 tokyo main 255 152 OOO______OPO__ jtwc_wp WP031956 28.9000 129.000 45 0 30.0000 128.500 9 997 0 0 0 29.4000 128.000 1 29 998 28.9000 129.000 TC 45 29.0199 129.164 2 45 28.9000 129.000 45 1001 60 22 39
1956107N06147 1956 37 WP MM THELMA 1956-04-24 21:00:00 TS 29.9768 129.728 main 142 34 PP_______PPP__ WP031956 29.7188 129.664 37 0 30.9207 129.860 9 997 0 0 1 29.7188 129.664 TC 37 29.8068 129.788 2 37 29.7188 129.664 37 1001 60 22 43
1956107N06147 1956 37 WP MM THELMA 1956-04-25 00:00:00 TS 30.7800 130.620 998 tokyo main 24 OO_______OOO__ jtwc_wp WP031956 30.6000 130.400 30 -1 31.5000 131.500 2 998 0 0 0 30.6000 130.400 TC 30 30.6000 130.400 1 30 30.6000 130.400 30 1002 60 22 44

デジタル台風データ・検索

IBTrACS Databaseについて

本データベースは、米国NOAAが公開する1842年以降の世界の熱帯低気圧のベストトラックデータアーカイブInternational Best Track Archive for Climate Stewardship (IBTrACS)を、ウェブで閲覧しやすい形式に変換したものです。

最終更新日:2021-12-01